Time;durP1;ratioP1;P1;durP2;ratioP2;P2;SDS_P1;SDS_P2;PMS_P1;PMS_P2;Temp;Humidity;BMP_temperature;BMP_pressure;BME280_temperature;BME280_humidity;BME280_pressure;Samples;Min_cycle;Max_cycle;Signal;HPM_P1;HPM_P2
2021/11/13 00:01:22;;;;;;;82.60;49.33;;;;;;;;;;5095393;28;20039;-68
2021/11/13 00:03:48;;;;;;;77.90;44.42;;;;;;;;;;5095247;28;20508;-67
2021/11/13 00:06:15;;;;;;;74.00;47.67;;;;;;;;;;5095697;28;20020;-70
2021/11/13 00:08:41;;;;;;;109.10;71.72;;;;;;;;;;5095640;28;20024;-70
2021/11/13 00:11:07;;;;;;;79.30;47.40;;;;;;;;;;5095607;28;20422;-70
2021/11/13 00:13:33;;;;;;;74.45;43.72;;;;;;;;;;5095568;28;20270;-69
2021/11/13 00:16:00;;;;;;;71.25;43.42;;;;;;;;;;5095467;28;20021;-69
2021/11/13 00:18:26;;;;;;;80.03;45.67;;;;;;;;;;5095557;28;20070;-70
2021/11/13 00:20:52;;;;;;;89.55;56.20;;;;;;;;;;5095543;28;20028;-70
2021/11/13 00:23:19;;;;;;;76.38;48.85;;;;;;;;;;5095578;28;20051;-68
2021/11/13 00:25:46;;;;;;;98.38;59.65;;;;;;;;;;5095247;28;20031;-68
2021/11/13 00:28:12;;;;;;;115.40;68.93;;;;;;;;;;5088184;28;20048;-70
2021/11/13 00:30:41;;;;;;;91.78;55.90;;;;;;;;;;5095169;28;20058;-70
2021/11/13 00:33:07;;;;;;;77.53;44.22;;;;;;;;;;5094858;28;20111;-70
2021/11/13 00:35:33;;;;;;;75.35;43.10;;;;;;;;;;5095359;28;20068;-69
2021/11/13 00:38:00;;;;;;;77.95;46.13;;;;;;;;;;5095106;28;20498;-68
2021/11/13 00:40:26;;;;;;;77.55;47.78;;;;;;;;;;5095024;28;20073;-69
2021/11/13 00:42:52;;;;;;;68.22;43.53;;;;;;;;;;5094811;28;20474;-67
2021/11/13 00:45:18;;;;;;;71.35;42.38;;;;;;;;;;5095256;28;20020;-69
2021/11/13 00:47:44;;;;;;;69.75;42.55;;;;;;;;;;5095170;28;20050;-69
2021/11/13 00:50:12;;;;;;;73.38;43.10;;;;;;;;;;5095121;28;20032;-68
2021/11/13 00:52:39;;;;;;;74.97;44.10;;;;;;;;;;5094972;28;20016;-72
2021/11/13 00:55:05;;;;;;;75.75;45.63;;;;;;;;;;5095113;28;20481;-68
2021/11/13 00:57:31;;;;;;;75.20;44.58;;;;;;;;;;5094807;28;20028;-66
2021/11/13 00:59:58;;;;;;;77.72;44.95;;;;;;;;;;5094885;28;20390;-70
2021/11/13 01:02:24;;;;;;;76.90;46.05;;;;;;;;;;5102536;28;20437;-65
2021/11/13 01:04:50;;;;;;;72.28;44.05;;;;;;;;;;5115286;28;20023;-66
2021/11/13 01:07:16;;;;;;;70.55;44.33;;;;;;;;;;5115269;28;20028;-66
2021/11/13 01:09:42;;;;;;;68.22;43.10;;;;;;;;;;5115205;28;20035;-66
2021/11/13 01:12:08;;;;;;;77.93;45.15;;;;;;;;;;5115018;28;20035;-67
2021/11/13 01:14:40;;;;;;;75.25;43.80;;;;;;;;;;5115067;28;20030;-66
2021/11/13 01:17:07;;;;;;;77.57;45.97;;;;;;;;;;5114837;28;20068;-67
2021/11/13 01:19:33;;;;;;;73.20;45.13;;;;;;;;;;5114967;28;20031;-66
2021/11/13 01:21:59;;;;;;;74.82;44.85;;;;;;;;;;5114938;28;20077;-66
2021/11/13 01:24:25;;;;;;;75.95;45.55;;;;;;;;;;5114806;28;20020;-66
2021/11/13 01:26:52;;;;;;;72.13;44.25;;;;;;;;;;5114671;28;20044;-67
2021/11/13 01:29:18;;;;;;;75.22;44.88;;;;;;;;;;5114693;28;20028;-66
2021/11/13 01:31:44;;;;;;;79.25;45.50;;;;;;;;;;5114634;28;20027;-66
2021/11/13 01:34:10;;;;;;;77.00;45.13;;;;;;;;;;5114314;28;20030;-66
2021/11/13 01:36:36;;;;;;;79.28;46.20;;;;;;;;;;5114519;28;20111;-63
2021/11/13 01:39:03;;;;;;;79.20;46.47;;;;;;;;;;5114713;28;20389;-65
2021/11/13 01:41:30;;;;;;;89.95;51.30;;;;;;;;;;5114406;28;20020;-65
2021/11/13 01:43:56;;;;;;;83.82;48.25;;;;;;;;;;5114282;28;20020;-67
2021/11/13 01:46:22;;;;;;;86.30;53.88;;;;;;;;;;5114430;28;20185;-64
2021/11/13 01:48:48;;;;;;;85.68;50.10;;;;;;;;;;5114216;28;20024;-63
2021/11/13 01:51:18;;;;;;;96.25;57.05;;;;;;;;;;5114225;28;20401;-71
2021/11/13 01:53:45;;;;;;;94.10;53.10;;;;;;;;;;5114111;28;20403;-64
2021/11/13 01:56:17;;;;;;;93.50;53.00;;;;;;;;;;5114092;28;20472;-65
2021/11/13 01:58:43;;;;;;;76.10;44.58;;;;;;;;;;5114100;28;20031;-65
2021/11/13 02:01:09;;;;;;;72.38;44.03;;;;;;;;;;5113953;28;20426;-64
2021/11/13 02:03:35;;;;;;;84.40;48.53;;;;;;;;;;5113802;28;20023;-67
2021/11/13 02:06:01;;;;;;;91.38;51.10;;;;;;;;;;5113590;28;20031;-69
2021/11/13 02:08:28;;;;;;;92.22;51.08;;;;;;;;;;5113941;28;20030;-67
2021/11/13 02:10:54;;;;;;;81.82;47.75;;;;;;;;;;5113593;28;20032;-67
2021/11/13 02:13:20;;;;;;;84.22;49.17;;;;;;;;;;5113700;28;20055;-68
2021/11/13 02:15:46;;;;;;;90.47;51.28;;;;;;;;;;5114097;28;20423;-71
2021/11/13 02:18:12;;;;;;;83.07;49.33;;;;;;;;;;5113627;28;20020;-73
2021/11/13 02:20:39;;;;;;;75.50;46.13;;;;;;;;;;5113751;28;20050;-67
2021/11/13 02:23:05;;;;;;;77.97;47.67;;;;;;;;;;5113873;28;20023;-67
2021/11/13 02:25:32;;;;;;;78.85;44.50;;;;;;;;;;5113774;28;20028;-66
2021/11/13 02:27:58;;;;;;;79.95;48.55;;;;;;;;;;5113543;28;20558;-70
2021/11/13 02:30:24;;;;;;;77.28;45.83;;;;;;;;;;5113610;28;20034;-69
2021/11/13 02:32:53;;;;;;;71.45;43.28;;;;;;;;;;5094940;28;20023;-70
2021/11/13 02:35:19;;;;;;;71.80;44.78;;;;;;;;;;5113319;28;20110;-71
2021/11/13 02:37:46;;;;;;;76.53;45.00;;;;;;;;;;5113730;28;20019;-67
2021/11/13 02:40:13;;;;;;;75.63;44.53;;;;;;;;;;5114113;28;20081;-70
2021/11/13 02:42:40;;;;;;;73.97;42.97;;;;;;;;;;5113276;28;20042;-72
2021/11/13 02:45:07;;;;;;;73.95;43.17;;;;;;;;;;5113534;28;20028;-69
2021/11/13 02:47:36;;;;;;;66.10;42.13;;;;;;;;;;5113757;28;20434;-70
2021/11/13 02:50:03;;;;;;;70.72;40.80;;;;;;;;;;5113281;28;20031;-72
2021/11/13 02:52:40;;;;;;;71.35;42.65;;;;;;;;;;5113333;28;20016;-69
2021/11/13 02:55:07;;;;;;;75.47;43.35;;;;;;;;;;5113216;28;20076;-67
2021/11/13 02:57:33;;;;;;;78.75;44.60;;;;;;;;;;5113190;28;20035;-69
2021/11/13 02:59:59;;;;;;;80.50;45.05;;;;;;;;;;5113369;28;20039;-65
2021/11/13 03:02:25;;;;;;;81.95;46.33;;;;;;;;;;5113028;28;20024;-70
2021/11/13 03:04:51;;;;;;;80.60;46.70;;;;;;;;;;5112987;28;20055;-65
2021/11/13 03:07:17;;;;;;;85.30;47.13;;;;;;;;;;5113303;28;20027;-68
2021/11/13 03:09:43;;;;;;;81.93;46.53;;;;;;;;;;5113074;28;20114;-67
2021/11/13 03:12:09;;;;;;;75.97;45.15;;;;;;;;;;5113291;28;20031;-69
2021/11/13 03:14:35;;;;;;;75.45;44.92;;;;;;;;;;5113115;28;20042;-68
2021/11/13 03:17:02;;;;;;;77.40;44.38;;;;;;;;;;5112963;28;20024;-66
2021/11/13 03:19:28;;;;;;;78.03;44.15;;;;;;;;;;5117160;28;20023;-67
2021/11/13 03:21:55;;;;;;;81.95;46.35;;;;;;;;;;5117481;28;20078;-67
2021/11/13 03:24:22;;;;;;;85.93;48.85;;;;;;;;;;5117160;28;20027;-67
2021/11/13 03:26:48;;;;;;;77.30;45.45;;;;;;;;;;5117103;28;20039;-67
2021/11/13 03:29:16;;;;;;;76.45;43.78;;;;;;;;;;5117169;28;20035;-66
2021/11/13 03:31:44;;;;;;;79.40;46.58;;;;;;;;;;5115378;28;20046;-67
2021/11/13 03:34:10;;;;;;;80.30;46.88;;;;;;;;;;5105378;28;20023;-71
2021/11/13 03:36:36;;;;;;;73.38;41.70;;;;;;;;;;5117096;28;20095;-73
2021/11/13 03:39:04;;;;;;;74.35;42.47;;;;;;;;;;5116883;28;20200;-71
2021/11/13 03:41:30;;;;;;;79.40;43.25;;;;;;;;;;5117173;28;20020;-70
2021/11/13 03:43:57;;;;;;;79.10;44.53;;;;;;;;;;5116962;28;20020;-68
2021/11/13 03:46:23;;;;;;;88.75;45.38;;;;;;;;;;5116827;28;20028;-69
2021/11/13 03:48:50;;;;;;;84.05;45.10;;;;;;;;;;5116342;28;20020;-68
2021/11/13 03:51:16;;;;;;;94.35;52.60;;;;;;;;;;5116450;28;20036;-67
2021/11/13 03:53:42;;;;;;;94.72;59.45;;;;;;;;;;5116786;28;20053;-67
2021/11/13 03:56:08;;;;;;;86.35;46.35;;;;;;;;;;5108082;28;20028;-73
2021/11/13 03:58:35;;;;;;;83.75;51.20;;;;;;;;;;5116552;28;20038;-70
2021/11/13 04:01:01;;;;;;;89.22;54.65;;;;;;;;;;5116526;28;20023;-72
2021/11/13 04:03:27;;;;;;;87.88;49.63;;;;;;;;;;5132330;27;20066;-72
2021/11/13 04:05:53;;;;;;;91.78;53.03;;;;;;;;;;5136940;27;20019;-71
2021/11/13 04:08:19;;;;;;;83.47;51.28;;;;;;;;;;5136893;27;20023;-67
2021/11/13 04:10:45;;;;;;;78.30;45.72;;;;;;;;;;5136661;27;20037;-69
2021/11/13 04:13:12;;;;;;;86.85;46.10;;;;;;;;;;5136842;27;20019;-68
2021/11/13 04:15:38;;;;;;;73.03;45.08;;;;;;;;;;5136887;27;20023;-68
2021/11/13 04:18:04;;;;;;;75.32;43.90;;;;;;;;;;5118212;27;20024;-67
2021/11/13 04:20:30;;;;;;;75.38;43.90;;;;;;;;;;5116085;28;20050;-68
2021/11/13 04:22:56;;;;;;;76.75;44.33;;;;;;;;;;5116011;28;20413;-68
2021/11/13 04:25:22;;;;;;;76.93;43.53;;;;;;;;;;5115850;28;20027;-69
2021/11/13 04:27:50;;;;;;;80.75;46.45;;;;;;;;;;5115237;28;20052;-65
2021/11/13 04:30:16;;;;;;;77.80;46.10;;;;;;;;;;5114565;28;20119;-75
2021/11/13 04:32:43;;;;;;;71.93;41.50;;;;;;;;;;5114589;28;20027;-75
2021/11/13 04:37:46;;;;;;;77.13;44.33;;;;;;;;;;5114757;28;20103;-67
2021/11/13 04:40:12;;;;;;;75.18;43.30;;;;;;;;;;5114598;28;20028;-70
2021/11/13 04:42:39;;;;;;;80.07;45.85;;;;;;;;;;5114430;28;20043;-67
2021/11/13 04:45:05;;;;;;;80.40;45.08;;;;;;;;;;5114745;28;20107;-69
2021/11/13 04:47:33;;;;;;;83.60;46.25;;;;;;;;;;5114573;28;20140;-68
2021/11/13 04:49:59;;;;;;;74.63;42.50;;;;;;;;;;5114479;28;20074;-67
2021/11/13 04:52:25;;;;;;;79.28;43.30;;;;;;;;;;5114228;28;20098;-66
2021/11/13 04:54:51;;;;;;;80.35;45.65;;;;;;;;;;5114149;28;20030;-66
2021/11/13 04:57:17;;;;;;;81.38;43.97;;;;;;;;;;5114234;28;20076;-66
2021/11/13 04:59:44;;;;;;;80.50;47.00;;;;;;;;;;5114426;28;20035;-72
2021/11/13 05:02:10;;;;;;;87.78;46.60;;;;;;;;;;5119079;28;20369;-73
2021/11/13 05:04:36;;;;;;;79.95;45.92;;;;;;;;;;5134533;28;20072;-70
2021/11/13 05:07:02;;;;;;;80.05;45.10;;;;;;;;;;5134773;28;20481;-68
2021/11/13 05:09:28;;;;;;;73.47;43.88;;;;;;;;;;5134505;28;20565;-66
2021/11/13 05:11:54;;;;;;;72.88;44.05;;;;;;;;;;5134693;28;20023;-66
2021/11/13 05:14:20;;;;;;;77.93;42.20;;;;;;;;;;5134635;28;20054;-75
2021/11/13 05:16:46;;;;;;;81.70;43.65;;;;;;;;;;5127030;28;20031;-69
2021/11/13 05:19:12;;;;;;;73.82;40.88;;;;;;;;;;5114010;28;20477;-67
2021/11/13 05:21:38;;;;;;;76.18;42.58;;;;;;;;;;5113873;28;20035;-66
2021/11/13 05:24:05;;;;;;;70.25;40.67;;;;;;;;;;5113920;28;20024;-75
2021/11/13 05:26:31;;;;;;;76.20;42.07;;;;;;;;;;5069805;28;1252722;-66
2021/11/13 05:28:58;;;;;;;74.38;39.33;;;;;;;;;;5114730;28;20076;-67
2021/11/13 05:31:24;;;;;;;71.63;39.88;;;;;;;;;;5114674;28;20552;-65
2021/11/13 05:33:50;;;;;;;73.70;39.47;;;;;;;;;;5114594;28;20094;-66
2021/11/13 05:36:16;;;;;;;62.63;37.67;;;231.00;2252.80;;;;;;5114568;28;20024;-66
2021/11/13 05:38:42;;;;;;;66.55;38.88;;;230.90;2252.80;;;;;;5114727;28;20553;-65
2021/11/13 05:41:08;;;;;;;73.28;41.22;;;230.80;2252.80;;;;;;5113611;28;20031;-67
2021/11/13 05:43:33;;;;;;;75.68;42.53;;;230.80;2252.80;;;;;;5114427;28;20382;-71
2021/11/13 05:46:00;;;;;;;80.25;46.92;;;230.90;2252.80;;;;;;5114657;28;20474;-68
2021/11/13 05:48:26;;;;;;;86.38;44.92;;;231.00;2252.80;;;;;;5114579;28;20406;-67
2021/11/13 05:50:51;;;;;;;77.80;43.47;;;231.30;2252.80;;;;;;5114151;28;20074;-67
2021/11/13 05:53:17;;;;;;;84.25;47.33;;;256.00;2252.80;;;;;;5114363;28;20031;-68
2021/11/13 05:55:43;;;;;;;83.80;47.40;;;256.00;2252.80;;;;;;5114378;28;20148;-73
2021/11/13 05:58:09;;;;;;;89.22;51.50;;;256.10;2252.80;;;;;;5114351;28;20032;-70
2021/11/13 06:00:35;;;;;;;88.72;49.55;;;256.10;2252.80;;;;;;5095892;28;20152;-67
2021/11/13 06:03:01;;;;;;;83.38;46.67;;;256.10;2252.80;;;;;;5113916;28;20354;-73
2021/11/13 06:05:27;;;;;;;82.28;46.67;;;256.00;2252.80;;;;;;5113933;28;20076;-67
2021/11/13 06:07:53;;;;;;;91.88;50.58;;;256.00;2252.80;;;;;;5127232;27;20418;-66
2021/11/13 06:10:19;;;;;;;80.18;45.00;;;256.00;2252.80;;;;;;5134215;27;20031;-66
2021/11/13 06:12:45;;;;;;;82.13;43.78;;;256.10;2252.80;;;;;;5134567;27;20023;-67
2021/11/13 06:15:11;;;;;;;86.13;44.13;;;256.20;2252.80;;;;;;5134544;27;20036;-67
2021/11/13 06:17:38;;;;;;;77.45;44.75;;;256.20;2252.80;;;;;;5119611;27;20043;-66
2021/11/13 06:20:05;;;;;;;76.45;41.08;;;256.10;2252.80;;;;;;5113986;28;20047;-67
2021/11/13 06:22:32;;;;;;;75.43;43.20;;;256.10;2252.80;;;;;;5113818;28;20015;-72
2021/11/13 06:24:57;;;;;;;80.10;43.20;;;256.20;2252.80;;;;;;5113685;28;20051;-72
2021/11/13 06:27:23;;;;;;;83.30;44.15;;;256.20;2252.80;;;;;;5106795;28;20461;-68
2021/11/13 06:29:50;;;;;;;79.28;45.40;;;256.00;2252.80;;;;;;5113817;28;20044;-71
2021/11/13 06:32:17;;;;;;;76.00;44.50;;;256.00;2252.80;;;;;;5108105;28;20052;-71
2021/11/13 06:34:43;;;;;;;84.40;45.28;;;256.10;2252.80;;;;;;5093200;28;20024;-68
2021/11/13 06:37:09;;;;;;;71.32;41.92;;;256.20;2252.80;;;;;;5093103;28;20382;-68
2021/11/13 06:39:36;;;;;;;87.00;44.42;;;256.30;2252.80;;;;;;5092820;28;20024;-69
2021/11/13 06:42:03;;;;;;;84.05;44.47;;;256.30;2252.80;;;;;;5093132;28;20109;-71
2021/11/13 06:44:29;;;;;;;83.60;44.33;;;256.30;2252.80;;;;;;5093264;28;20027;-68
2021/11/13 06:46:55;;;;;;;88.00;45.53;;;256.00;2252.80;;;;;;5093094;28;20027;-69
2021/11/13 06:49:21;;;;;;;101.75;53.45;;;256.00;2252.80;;;;;;5093009;28;20012;-69
2021/11/13 06:51:47;;;;;;;85.28;47.42;;;256.20;2252.80;;;;;;5092763;28;20044;-67
2021/11/13 06:54:13;;;;;;;86.40;47.35;;;256.30;2252.80;;;;;;5093034;28;20027;-70
2021/11/13 06:56:40;;;;;;;80.68;45.60;;;231.30;2252.80;;;;;;5092564;28;20031;-68
2021/11/13 06:59:06;;;;;;;90.35;46.80;;;256.30;2252.80;;;;;;5092623;28;20024;-68
2021/11/13 07:01:31;;;;;;;89.93;49.13;;;256.30;2252.80;;;;;;5092812;28;20389;-68
2021/11/13 07:03:57;;;;;;;83.93;45.15;;;231.20;2252.80;;;;;;5112397;28;20028;-68
2021/11/13 07:06:23;;;;;;;95.75;53.47;;;231.10;2252.80;;;;;;5112993;28;20028;-69
2021/11/13 07:08:48;;;;;;;90.43;48.33;;;231.10;2252.80;;;;;;5113101;28;20023;-71
2021/11/13 07:11:14;;;;;;;77.05;45.00;;;231.20;2252.80;;;;;;5112856;28;20032;-70
2021/11/13 07:13:40;;;;;;;79.80;44.70;;;256.00;2252.80;;;;;;5113094;28;20027;-70
2021/11/13 07:16:06;;;;;;;86.35;45.65;;;256.20;2252.80;;;;;;5113238;28;20032;-69
2021/11/13 07:18:32;;;;;;;89.97;47.97;;;256.50;2252.80;;;;;;5104663;28;20058;-69
2021/11/13 07:21:03;;;;;;;89.63;49.05;;;256.40;2252.80;;;;;;5112934;28;20073;-66
2021/11/13 07:23:30;;;;;;;100.78;56.58;;;256.50;2252.80;;;;;;5113127;28;20094;-67
2021/11/13 07:25:58;;;;;;;95.82;51.60;;;256.60;2252.80;;;;;;5112763;28;20032;-67
2021/11/13 07:28:44;;;;;;;98.50;56.58;;;256.60;2252.80;;;;;;5112833;28;20048;-69
2021/11/13 07:31:12;;;;;;;110.15;60.63;;;256.40;2252.80;;;;;;5112926;28;20031;-69
2021/11/13 07:33:38;;;;;;;120.38;61.50;;;256.70;2252.80;;;;;;5094474;28;20051;-71
2021/11/13 07:36:05;;;;;;;98.68;53.35;;;256.50;2252.80;;;;;;5112957;28;20020;-67
2021/11/13 07:38:31;;;;;;;155.13;81.95;;;256.60;2252.80;;;;;;5112771;28;20020;-69
2021/11/13 07:40:56;;;;;;;103.03;57.28;;;256.70;2252.80;;;;;;5094643;28;20537;-66
2021/11/13 07:43:23;;;;;;;100.85;55.25;;;256.80;2252.80;;;;;;5112967;28;20153;-66
2021/11/13 07:45:49;;;;;;;108.70;56.70;;;281.60;2278.40;;;;;;5112720;28;20027;-67
2021/11/13 07:48:15;;;;;;;155.15;84.68;;;256.90;2252.80;;;;;;5112707;28;20027;-66
2021/11/13 07:50:42;;;;;;;101.50;59.08;;;256.80;2252.80;;;;;;5112729;28;20031;-67
2021/11/13 07:53:08;;;;;;;94.95;53.10;;;256.80;2252.80;;;;;;5112676;28;20099;-65
2021/11/13 07:55:36;;;;;;;107.03;59.50;;;256.70;2252.80;;;;;;5111991;28;20388;-66
2021/11/13 07:58:03;;;;;;;86.32;48.42;;;256.70;2252.80;;;;;;5112164;28;20042;-68
2021/11/13 08:00:29;;;;;;;91.28;48.92;;;256.90;2252.80;;;;;;5109191;28;20020;-67
2021/11/13 08:02:55;;;;;;;96.15;52.75;;;256.80;2252.80;;;;;;5106206;28;20034;-66
2021/11/13 08:05:22;;;;;;;104.85;57.90;;;;;;;;;;5109339;28;20027;-66
2021/11/13 08:07:48;;;;;;;83.68;47.25;;;;;;;;;;5114941;28;20011;-64
2021/11/13 08:10:15;;;;;;;97.20;53.97;;;;;;;;;;5115482;28;20031;-64
2021/11/13 08:12:42;;;;;;;93.10;51.80;;;281.70;2278.40;;;;;;5112897;28;20020;-67
2021/11/13 08:15:09;;;;;;;104.05;54.90;;;281.80;2278.40;;;;;;5112944;28;20381;-68
2021/11/13 08:17:35;;;;;;;97.72;53.88;;;281.80;2278.40;;;;;;5114946;28;20464;-66
2021/11/13 08:20:02;;;;;;;101.40;51.15;;;282.10;2278.40;;;;;;5113220;28;20046;-67
2021/11/13 08:22:28;;;;;;;92.65;50.78;;;282.00;2278.40;;;;;;5115348;28;20107;-69
2021/11/13 08:24:53;;;;;;;89.78;50.03;;;281.80;2278.40;;;;;;5115220;28;20478;-68
2021/11/13 08:27:19;;;;;;;93.72;48.75;;;281.90;2278.40;;;;;;5123556;27;20516;-67
2021/11/13 08:29:45;;;;;;;89.32;50.83;;;281.80;2278.40;;;;;;5135952;27;20068;-67
2021/11/13 08:32:11;;;;;;;106.10;59.15;;;281.90;2278.40;;;;;;5131081;27;20378;-69
2021/11/13 08:34:36;;;;;;;88.47;50.95;;;282.10;2278.40;;;;;;5136220;27;20024;-70
2021/11/13 08:37:04;;;;;;;89.10;49.20;;;282.20;2278.40;;;;;;5135877;27;20031;-66
2021/11/13 08:39:34;;;;;;;89.25;48.38;;;282.10;2278.40;;;;;;5127776;27;20477;-72
2021/11/13 08:42:09;;;;;;;85.50;47.92;;;282.10;2278.40;;;;;;5132461;27;20028;-70
2021/11/13 08:44:36;;;;;;;92.95;50.90;;;281.90;2278.40;;;;;;5131079;27;20419;-68
2021/11/13 08:47:04;;;;;;;101.05;64.13;;;281.70;2278.40;;;;;;5135574;27;20077;-71
2021/11/13 08:49:30;;;;;;;82.72;47.17;;;281.60;2278.40;;;;;;5135644;27;20019;-71
2021/11/13 08:51:57;;;;;;;77.30;44.03;;;281.70;2278.40;;;;;;5135257;27;20039;-71
2021/11/13 08:54:23;;;;;;;87.53;50.60;;;282.30;2278.40;;;;;;5135698;27;20044;-70
2021/11/13 08:56:49;;;;;;;92.13;53.70;;;282.20;2278.40;;;;;;5135238;27;20096;-69
2021/11/13 08:59:15;;;;;;;106.22;62.35;;;282.00;2278.40;;;;;;5135549;27;20385;-72
2021/11/13 09:01:44;;;;;;;90.65;48.15;;;282.30;2278.40;;;;;;5135992;27;20383;-72
2021/11/13 09:04:10;;;;;;;97.32;62.10;;;;;;;;;;5135141;27;20034;-68
2021/11/13 09:06:36;;;;;;;91.93;54.25;;;282.50;2278.40;;;;;;5135243;27;20020;-70
2021/11/13 09:09:04;;;;;;;106.15;63.40;;;307.20;2304.00;;;;;;5134856;27;20023;-71
2021/11/13 09:11:32;;;;;;;108.43;61.42;;;;;;;;;;5135036;27;20069;-69
2021/11/13 09:13:59;;;;;;;111.85;61.13;;;307.30;2304.00;;;;;;5135174;27;20027;-67
2021/11/13 09:16:26;;;;;;;92.32;51.55;;;;;;;;;;5129654;27;20016;-67
2021/11/13 09:18:53;;;;;;;122.65;62.47;;;;;;;;;;5119832;27;20102;-70
2021/11/13 09:21:19;;;;;;;130.57;66.80;;;307.60;2304.00;;;;;;5131519;27;20023;-68
2021/11/13 09:23:46;;;;;;;123.72;69.60;;;;;;;;;;5134632;27;20505;-72
2021/11/13 09:26:12;;;;;;;140.75;63.63;;;;;;;;;;5134387;27;20035;-71
2021/11/13 09:28:39;;;;;;;116.00;64.63;;;;;;;;;;5134389;27;20400;-70
2021/11/13 09:31:06;;;;;;;117.70;65.15;;;;;;;;;;5134469;27;20495;-70
2021/11/13 09:33:32;;;;;;;123.97;66.72;;;;;;;;;;5132794;27;20023;-69
2021/11/13 09:35:59;;;;;;;128.55;73.18;;;;;;;;;;5134591;27;20504;-71
2021/11/13 09:38:27;;;;;;;121.15;69.63;;;;;;;;;;5134060;27;20026;-68
2021/11/13 09:40:55;;;;;;;130.50;71.05;;;333.10;2201.60;;;;;;5134014;27;20050;-68
2021/11/13 09:43:23;;;;;;;135.23;75.57;;;333.20;2201.60;;;;;;5134654;27;20050;-66
2021/11/13 09:45:50;;;;;;;125.07;68.57;;;;;;;;;;5134555;27;20026;-65
2021/11/13 09:48:16;;;;;;;137.68;73.45;;;;;;;;;;5134528;27;20034;-66
2021/11/13 09:50:46;;;;;;;122.50;66.97;;;;;;;;;;5133528;27;20444;-63
2021/11/13 09:53:12;;;;;;;125.78;66.90;;;;;;;;;;5133311;27;20023;-66
2021/11/13 09:55:38;;;;;;;124.10;72.07;;;359.20;1971.20;;;;;;5133601;27;20034;-66
2021/11/13 09:58:04;;;;;;;124.20;66.80;;;;;;;;;;5134073;27;20025;-64
2021/11/13 10:00:32;;;;;;;107.43;63.25;;;;;;;;;;5134068;27;20019;-65
2021/11/13 10:02:59;;;;;;;95.18;55.55;;;;;;;;;;5128736;27;20096;-74
2021/11/13 10:05:25;;;;;;;105.90;62.50;;;;;;;;;;5134588;27;20054;-68
2021/11/13 10:07:51;;;;;;;104.15;61.20;;;563.20;1331.20;;;;;;5134306;27;20451;-68
2021/11/13 10:10:47;;;;;;;97.65;58.92;;;;;;;;;;5134339;27;20039;-67
2021/11/13 10:13:24;;;;;;;104.57;63.42;;;;;;;;;;5073934;28;20063;-67
2021/11/13 10:15:54;;;;;;;91.05;57.78;;;;;;;;;;5091419;28;20032;-69
2021/11/13 10:18:21;;;;;;;89.10;58.00;;;;;;;;;;5072947;28;20036;-72
2021/11/13 10:20:49;;;;;;;92.57;60.70;;;;;;;;;;5070100;28;20034;-69
2021/11/13 10:23:42;;;;;;;87.00;57.03;;;;;;;;;;5070914;28;20167;-70
2021/11/13 10:26:10;;;;;;;101.90;67.13;;;;;;;;;;5010728;28;20182;-69
2021/11/13 10:28:49;;;;;;;111.85;78.38;;;;;;;;;;5010913;28;20132;-68
2021/11/13 10:31:26;;;;;;;103.05;67.55;;;973.00;512.00;;;;;;5011287;28;20076;-74
2021/11/13 10:33:53;;;;;;;104.22;70.93;;;;;;;;;;5011088;28;20480;-74
2021/11/13 10:36:21;;;;;;;100.90;76.15;;;;;;;;;;5011307;28;20034;-73
2021/11/13 10:38:49;;;;;;;97.65;68.55;;;;;;;;;;5011108;28;20030;-69
2021/11/13 10:41:15;;;;;;;94.70;65.80;;;896.80;512.00;;;;;;5011167;28;20590;-75
2021/11/13 10:43:44;;;;;;;103.70;68.75;;;896.70;512.00;;;;;;5010984;28;20117;-71
2021/11/13 10:46:15;;;;;;;106.88;74.72;;;972.80;486.40;;;;;;5011340;28;20088;-70
2021/11/13 10:48:50;;;;;;;100.07;69.10;;;973.20;486.40;;;;;;5013307;28;20044;-70
2021/11/13 10:51:18;;;;;;;104.70;73.63;;;;;;;;;;5030596;28;20037;-66
2021/11/13 10:53:45;;;;;;;121.18;81.53;;;;;;;;;;5030595;28;20022;-68
2021/11/13 10:56:15;;;;;;;127.13;93.03;;;;;;;;;;5030267;28;20073;-71
2021/11/13 10:58:43;;;;;;;118.87;81.20;;;;;;;;;;5030615;28;20056;-68
2021/11/13 11:01:26;;;;;;;106.07;75.03;;;;;;;;;;5030479;28;20029;-71
2021/11/13 11:03:53;;;;;;;110.82;76.55;;;;;;;;;;5102237;28;20402;-72
2021/11/13 11:06:25;;;;;;;105.32;79.43;;;1024.90;409.60;;;;;;5111407;28;20065;-70
2021/11/13 11:08:52;;;;;;;110.45;80.35;;;1050.30;435.20;;;;;;5112826;28;20592;-67
2021/11/13 11:11:29;;;;;;;116.63;86.38;;;;;;;;;;5113031;28;20039;-71
2021/11/13 11:13:56;;;;;;;126.93;91.45;;;;;;;;;;5112926;28;20095;-66
2021/11/13 11:16:24;;;;;;;138.85;105.45;;;;;;;;;;5108076;28;20027;-68
2021/11/13 11:18:55;;;;;;;137.15;103.32;;;;;;;;;;5092329;28;20050;-71
2021/11/13 11:21:37;;;;;;;132.23;99.20;;;;;;;;;;5092438;28;20378;-67
2021/11/13 11:24:14;;;;;;;125.22;93.18;;;;;;;;;;5092448;28;20024;-68
2021/11/13 11:26:40;;;;;;;108.20;83.93;;;;;;;;;;5092441;28;20048;-66
2021/11/13 11:29:06;;;;;;;128.50;93.05;;;1049.90;409.60;;;;;;5074407;28;20024;-72
2021/11/13 11:31:50;;;;;;;134.55;109.50;;;;;;;;;;5092213;28;20078;-68
2021/11/13 11:34:20;;;;;;;118.13;86.72;;;;;;;;;;5092425;28;20023;-67
2021/11/13 11:36:46;;;;;;;114.60;83.93;;;;;;;;;;5092438;28;20020;-72
2021/11/13 11:39:13;;;;;;;108.50;85.88;;;;;;;;;;5094354;28;20386;-68
2021/11/13 11:41:40;;;;;;;104.55;78.20;;;948.00;460.80;;;;;;5096657;28;20374;-67
2021/11/13 11:44:06;;;;;;;99.13;73.30;;;;;;;;;;5096433;28;20043;-67
2021/11/13 11:46:32;;;;;;;93.90;72.50;;;;;;;;;;5096125;28;20027;-71
2021/11/13 11:48:59;;;;;;;101.07;82.53;;;1050.50;409.60;;;;;;5096111;28;20028;-70
2021/11/13 11:51:25;;;;;;;91.90;74.95;;;1050.40;435.20;;;;;;5096172;28;20440;-68
2021/11/13 11:53:51;;;;;;;82.55;62.33;;;;;;;;;;5096061;28;20107;-70
2021/11/13 11:56:18;;;;;;;79.95;64.25;;;;;;;;;;5096376;28;20086;-67
2021/11/13 11:58:44;;;;;;;83.68;71.68;;;;;;;;;;5096015;28;20020;-72
2021/11/13 12:01:25;;;;;;;69.05;57.97;;;;;;;;;;5095835;28;20078;-67
2021/11/13 12:03:51;;;;;;;82.00;65.65;;;;;;;;;;5096085;28;20031;-67
2021/11/13 12:06:17;;;;;;;77.72;55.65;;;;;;;;;;5095918;28;20081;-67
2021/11/13 12:08:44;;;;;;;85.70;70.65;;;1100.90;384.00;;;;;;5095702;28;20028;-67
2021/11/13 12:11:21;;;;;;;83.03;69.13;;;;;;;;;;5096312;28;20035;-69
2021/11/13 12:13:47;;;;;;;85.93;66.15;;;972.80;486.40;;;;;;5095552;28;20020;-68
2021/11/13 12:16:22;;;;;;;66.15;52.60;;;;;;;;;;5098527;28;21208;-66
2021/11/13 12:18:48;;;;;;;66.28;53.15;;;;;;;;;;5115864;28;20080;-68
2021/11/13 12:21:15;;;;;;;86.13;66.32;;;;;;;;;;5116238;28;20385;-68
2021/11/13 12:23:49;;;;;;;82.80;64.63;;;1049.90;409.60;;;;;;5115943;28;20478;-67
2021/11/13 12:26:32;;;;;;;68.30;58.97;;;1049.80;435.20;;;;;;5115717;28;20089;-67
2021/11/13 12:28:59;;;;;;;62.38;52.03;;;;;;;;;;5116003;28;20043;-72
2021/11/13 12:31:31;;;;;;;63.38;47.10;;;;;;;;;;5116023;28;20040;-66
2021/11/13 12:34:05;;;;;;;62.05;48.95;;;973.50;435.20;;;;;;5115620;28;20470;-66
2021/11/13 12:36:35;;;;;;;58.20;48.15;;;;;;;;;;5116148;28;20074;-68
2021/11/13 12:39:06;;;;;;;56.10;45.57;;;;;;;;;;5115410;28;20015;-68
2021/11/13 12:41:38;;;;;;;65.30;46.15;;;;;;;;;;5115567;28;20103;-70
2021/11/13 12:44:14;;;;;;;61.20;45.72;;;896.90;486.40;;;;;;5115666;28;20027;-68
2021/11/13 12:46:47;;;;;;;76.97;55.15;;;870.80;537.60;;;;;;5115615;28;20488;-65
2021/11/13 12:49:19;;;;;;;62.78;45.67;;;845.00;614.40;;;;;;5115345;28;20110;-68
2021/11/13 12:51:54;;;;;;;61.53;48.80;;;870.40;563.20;;;;;;5115233;28;20485;-70
2021/11/13 12:54:31;;;;;;;72.00;57.50;;;;;;;;;;5115226;28;20473;-66
2021/11/13 12:57:04;;;;;;;116.63;82.00;;;;;;;;;;5115621;28;20051;-67
2021/11/13 12:59:33;;;;;;;68.03;51.45;;;768.70;665.60;;;;;;5115365;28;20028;-67
2021/11/13 13:02:00;;;;;;;97.15;73.90;;;;;;;;;;5114959;28;20051;-67
2021/11/13 13:04:31;;;;;;;80.70;64.00;;;;;;;;;;5114337;28;20073;-70
2021/11/13 13:06:57;;;;;;;75.50;58.25;;;;;;;;;;5114668;28;20406;-70
2021/11/13 13:09:23;;;;;;;78.18;54.92;;;;;;;;;;5115383;28;20028;-67
2021/11/13 13:12:00;;;;;;;60.05;48.90;;;;;;;;;;5113653;28;20055;-70
2021/11/13 13:14:32;;;;;;;69.40;54.10;;;794.10;665.60;;;;;;5114886;28;20501;-67
2021/11/13 13:16:59;;;;;;;71.30;53.78;;;;;;;;;;5114743;28;20037;-71
2021/11/13 13:19:51;;;;;;;52.10;40.85;;;;;;;;;;5115123;28;20024;-71
2021/11/13 13:22:17;;;;;;;58.92;45.65;;;;;;;;;;5112467;28;20039;-71
2021/11/13 13:24:48;;;;;;;53.15;44.05;;;;;;;;;;5114844;28;20026;-68
2021/11/13 13:27:14;;;;;;;78.53;55.13;;;;;;;;;;5114489;28;20050;-71